Terminal Aerodrome Forecast
Issued by NWS

Home | Current Version | Previous Version | Text Only | Print | Product List | Glossary On
Versions: 1 2 3 4 5 6 7 8 9 10 11 12 13
000
FTUS42 KMLB 210500 RRA
TAFTIX
TAF
KTIX 210543Z 2106/2206 31006KT P6SM SCT015 BKN250
     FM211400 35007KT P6SM SCT025 BKN250
     FM211800 07007KT P6SM VCSH SCT030 BKN080 PROB30 2119/2122 3SM
      SHRA BKN030
     FM220100 VRB02KT P6SM BKN120
      AMD NOT SKED TIL 211100=

USA.gov is the U.S. government's official web portal to all federal, state and local government web resources and services.